Time;durP1;ratioP1;P1;durP2;ratioP2;P2;SDS_P1;SDS_P2;PMS_P1;PMS_P2;Temp;Humidity;BMP_temperature;BMP_pressure;BME280_temperature;BME280_humidity;BME280_pressure;Samples;Min_cycle;Max_cycle;Signal;HPM_P1;HPM_P2
2022/03/30 00:01:07;;;;;;;;;;;10.60;99.90;;;;;;5098090;28;20287;-82
2022/03/30 00:03:33;;;;;;;;;;;10.60;99.90;;;;;;5094969;28;19980;-81
2022/03/30 00:05:58;;;;;;;;;;;10.60;99.90;;;;;;5097966;28;20021;-79
2022/03/30 00:08:24;;;;;;;;;;;10.50;99.90;;;;;;5098661;28;19916;-83
2022/03/30 00:10:49;;;;;;;;;;;10.50;99.90;;;;;;5097440;28;19922;-82
2022/03/30 00:13:15;;;;;;;;;;;10.50;99.90;;;;;;5097734;28;20380;-82
2022/03/30 00:15:41;;;;;;;;;;;10.50;99.90;;;;;;5096090;28;19912;-82
2022/03/30 00:18:06;;;;;;;;;;;10.50;99.90;;;;;;5096936;28;19912;-82
2022/03/30 00:20:32;;;;;;;;;;;10.40;99.90;;;;;;5096871;28;19970;-83
2022/03/30 00:22:57;;;;;;;;;;;10.40;99.90;;;;;;5100193;28;19915;-82
2022/03/30 00:25:23;;;;;;;;;;;10.40;99.90;;;;;;5096270;28;19912;-82
2022/03/30 00:27:48;;;;;;;;;;;10.30;99.90;;;;;;5099684;28;20414;-81
2022/03/30 00:30:15;;;;;;;;;;;10.30;99.90;;;;;;5093745;28;19916;-81
2022/03/30 00:32:40;;;;;;;;;;;10.30;99.90;;;;;;5095512;28;19912;-81
2022/03/30 00:35:07;;;;;;;;;;;10.30;99.90;;;;;;5095660;28;19912;-81
2022/03/30 00:37:33;;;;;;;;;;;10.30;99.90;;;;;;5096356;28;19912;-81
2022/03/30 00:39:59;;;;;;;;;;;10.30;99.90;;;;;;5097125;28;20514;-81
2022/03/30 00:42:24;;;;;;;;;;;10.30;99.90;;;;;;5097274;28;19912;-83
2022/03/30 00:44:50;;;;;;;;;;;10.30;99.90;;;;;;5092731;28;19923;-82
2022/03/30 00:47:16;;;;;;;;;;;10.30;99.90;;;;;;5094183;28;20209;-81
2022/03/30 00:49:42;;;;;;;;;;;10.30;99.90;;;;;;5091360;28;19924;-81
2022/03/30 00:52:08;;;;;;;;;;;10.30;99.90;;;;;;5094276;28;19912;-81
2022/03/30 00:54:34;;;;;;;;;;;10.30;99.90;;;;;;5092201;28;19912;-81
2022/03/30 00:56:59;;;;;;;;;;;10.30;99.90;;;;;;5095069;28;19943;-81
2022/03/30 00:59:25;;;;;;;;;;;10.30;99.90;;;;;;5092102;28;19959;-81
2022/03/30 01:01:50;;;;;;;;;;;10.30;99.90;;;;;;5091115;28;19973;-81
2022/03/30 01:04:16;;;;;;;;;;;10.30;99.90;;;;;;5092417;28;20034;-81
2022/03/30 01:06:41;;;;;;;;;;;10.20;99.90;;;;;;5091400;28;20395;-82
2022/03/30 01:09:07;;;;;;;;;;;10.20;99.90;;;;;;5092659;28;20326;-80
2022/03/30 01:11:32;;;;;;;;;;;10.20;99.90;;;;;;5089828;28;19913;-81
2022/03/30 01:13:58;;;;;;;;;;;10.20;99.90;;;;;;5091939;28;19960;-82
2022/03/30 01:16:23;;;;;;;;;;;10.10;99.90;;;;;;5094275;28;19912;-81
2022/03/30 01:18:49;;;;;;;;;;;10.10;99.90;;;;;;5089858;28;19927;-82
2022/03/30 01:21:15;;;;;;;;;;;10.00;99.90;;;;;;5090722;28;19912;-81
2022/03/30 01:23:41;;;;;;;;;;;10.00;99.90;;;;;;5088447;28;19912;-82
2022/03/30 01:26:07;;;;;;;;;;;10.00;99.90;;;;;;5090184;28;19919;-81
2022/03/30 01:28:33;;;;;;;;;;;9.90;99.90;;;;;;5089936;28;20455;-81
2022/03/30 01:33:44;;;;;;;;;;;9.90;99.90;;;;;;5095477;28;20387;-81
2022/03/30 01:36:10;;;;;;;;;;;9.90;99.90;;;;;;5098081;28;19927;-81
2022/03/30 01:38:36;;;;;;;;;;;9.90;99.90;;;;;;5091662;28;19916;-83
2022/03/30 01:41:01;;;;;;;;;;;9.90;99.90;;;;;;5097145;28;20483;-82
2022/03/30 01:43:28;;;;;;;;;;;9.90;99.90;;;;;;5094861;28;20392;-82
2022/03/30 01:45:54;;;;;;;;;;;9.80;99.90;;;;;;5095911;28;20097;-82
2022/03/30 01:48:19;;;;;;;;;;;9.80;99.90;;;;;;5096151;28;19967;-82
2022/03/30 01:50:45;;;;;;;;;;;9.80;99.90;;;;;;5095772;28;20371;-82
2022/03/30 01:53:10;;;;;;;;;;;9.70;99.90;;;;;;5091552;28;20011;-82
2022/03/30 01:55:35;;;;;;;;;;;9.70;99.90;;;;;;5093626;28;19912;-80
2022/03/30 01:58:02;;;;;;;;;;;9.70;99.90;;;;;;5094944;28;20034;-81
2022/03/30 02:00:27;;;;;;;;;;;9.70;99.90;;;;;;5093867;28;19912;-81
2022/03/30 02:02:53;;;;;;;;;;;9.70;99.90;;;;;;5092603;28;22353;-83
2022/03/30 02:05:18;;;;;;;;;;;9.70;99.90;;;;;;5095194;28;19919;-82
2022/03/30 02:07:44;;;;;;;;;;;9.70;99.90;;;;;;5091970;28;19919;-81
2022/03/30 02:10:10;;;;;;;;;;;9.70;99.90;;;;;;5094315;28;20014;-82
2022/03/30 02:12:36;;;;;;;;;;;9.70;99.90;;;;;;5093459;28;19912;-81
2022/03/30 02:15:02;;;;;;;;;;;9.70;99.90;;;;;;5099980;28;19923;-82
2022/03/30 02:17:27;;;;;;;;;;;9.60;99.90;;;;;;5092475;28;19912;-81
2022/03/30 02:19:56;;;;;;;;;;;9.60;99.90;;;;;;5091066;28;20001;-81
2022/03/30 02:22:22;;;;;;;;;;;9.60;99.90;;;;;;5090628;28;19920;-81
2022/03/30 02:24:51;;;;;;;;;;;9.50;99.90;;;;;;5091267;28;19912;-81
2022/03/30 02:27:19;;;;;;;;;;;9.50;99.90;;;;;;5090902;28;19927;-81
2022/03/30 02:29:46;;;;;;;;;;;9.50;99.90;;;;;;5089767;28;19920;-81
2022/03/30 02:32:12;;;;;;;;;;;9.40;99.90;;;;;;5091139;28;19923;-80
2022/03/30 02:34:38;;;;;;;;;;;9.40;99.90;;;;;;5090320;28;19916;-82
2022/03/30 02:37:03;;;;;;;;;;;9.40;99.90;;;;;;5089602;28;19917;-81
2022/03/30 02:39:29;;;;;;;;;;;9.40;99.90;;;;;;5092348;28;19919;-81
2022/03/30 02:41:55;;;;;;;;;;;9.30;99.90;;;;;;5091134;28;19927;-81
2022/03/30 02:44:21;;;;;;;;;;;9.30;99.90;;;;;;5089285;28;19923;-81
2022/03/30 02:46:46;;;;;;;;;;;9.30;99.90;;;;;;5090465;28;19912;-81
2022/03/30 02:49:12;;;;;;;;;;;9.20;99.90;;;;;;5089834;28;19924;-82
2022/03/30 02:51:38;;;;;;;;;;;9.10;99.90;;;;;;5091830;28;19919;-82
2022/03/30 02:54:04;;;;;;;;;;;9.10;99.90;;;;;;5089823;28;19935;-81
2022/03/30 02:56:29;;;;;;;;;;;9.10;99.90;;;;;;5091066;28;19916;-81
2022/03/30 02:58:55;;;;;;;;;;;9.00;99.90;;;;;;5088405;28;20083;-81
2022/03/30 03:01:20;;;;;;;;;;;9.00;99.90;;;;;;5092216;28;19987;-82
2022/03/30 03:03:46;;;;;;;;;;;8.90;99.90;;;;;;5097455;28;19912;-82
2022/03/30 03:06:12;;;;;;;;;;;8.90;99.90;;;;;;5099225;28;19916;-82
2022/03/30 03:08:37;;;;;;;;;;;8.90;99.90;;;;;;5100275;28;19920;-82
2022/03/30 03:11:03;;;;;;;;;;;8.90;99.90;;;;;;5095680;28;20394;-82
2022/03/30 03:13:29;;;;;;;;;;;8.80;99.90;;;;;;5099762;28;19916;-82
2022/03/30 03:15:54;;;;;;;;;;;8.80;99.90;;;;;;5098113;28;19920;-82
2022/03/30 03:18:20;;;;;;;;;;;8.80;99.90;;;;;;5100435;28;19912;-83
2022/03/30 03:20:46;;;;;;;;;;;8.80;99.90;;;;;;5099116;28;20536;-81
2022/03/30 03:23:12;;;;;;;;;;;8.90;99.90;;;;;;5096942;28;19916;-81
2022/03/30 03:25:40;;;;;;;;;;;8.90;99.90;;;;;;5097994;28;19911;-81
2022/03/30 03:28:06;;;;;;;;;;;8.90;99.90;;;;;;5098239;28;19917;-81
2022/03/30 03:30:31;;;;;;;;;;;8.90;99.90;;;;;;5097270;28;19923;-81
2022/03/30 03:32:57;;;;;;;;;;;8.90;99.90;;;;;;5095337;28;20025;-82
2022/03/30 03:35:24;;;;;;;;;;;8.90;99.90;;;;;;5096066;28;19927;-82
2022/03/30 03:37:49;;;;;;;;;;;8.90;99.90;;;;;;5096364;28;19912;-81
2022/03/30 03:40:17;;;;;;;;;;;8.90;99.90;;;;;;5096852;28;19927;-80
2022/03/30 03:42:43;;;;;;;;;;;8.80;99.90;;;;;;5096433;28;19912;-82
2022/03/30 03:45:09;;;;;;;;;;;8.80;99.90;;;;;;5097242;28;19922;-81
2022/03/30 03:47:34;;;;;;;;;;;8.70;99.90;;;;;;5098614;28;20356;-81
2022/03/30 03:50:00;;;;;;;;;;;8.70;99.90;;;;;;5094495;28;19931;-81
2022/03/30 03:52:25;;;;;;;;;;;8.70;99.90;;;;;;5096092;28;19912;-81
2022/03/30 03:54:51;;;;;;;;;;;8.70;99.90;;;;;;5092938;28;19920;-81
2022/03/30 03:57:16;;;;;;;;;;;8.70;99.90;;;;;;5093346;28;20276;-81
2022/03/30 03:59:42;;;;;;;;;;;8.70;99.90;;;;;;5094675;28;19919;-82
2022/03/30 04:02:07;;;;;;;;;;;8.70;99.90;;;;;;5093378;28;19916;-82
2022/03/30 04:04:33;;;;;;;;;;;8.70;1.00;;;;;;5095122;28;19970;-81
2022/03/30 04:06:59;;;;;;;;;;;8.60;1.00;;;;;;5095455;28;22008;-81
2022/03/30 04:09:24;;;;;;;;;;;8.60;1.00;;;;;;5096157;28;19923;-81
2022/03/30 04:11:50;;;;;;;;;;;8.60;1.00;;;;;;5097074;28;19912;-82
2022/03/30 04:14:19;;;;;;;;;;;8.50;1.00;;;;;;5099516;28;20011;-82
2022/03/30 04:16:45;;;;;;;;;;;8.40;1.00;;;;;;5096978;28;19999;-81
2022/03/30 04:19:11;;;;;;;;;;;8.40;15.10;;;;;;5098210;28;20385;-82
2022/03/30 04:21:36;;;;;;;;;;;8.30;99.90;;;;;;5095313;28;19916;-80
2022/03/30 04:24:02;;;;;;;;;;;8.20;99.90;;;;;;5092923;28;19935;-82
2022/03/30 04:26:27;;;;;;;;;;;8.10;99.90;;;;;;5093530;28;19916;-81
2022/03/30 04:28:53;;;;;;;;;;;8.10;1.00;;;;;;5093688;28;19969;-80
2022/03/30 04:31:18;;;;;;;;;;;8.10;1.00;;;;;;5092431;28;20388;-81
2022/03/30 04:33:44;;;;;;;;;;;8.10;1.00;;;;;;5094441;28;20010;-82
2022/03/30 04:36:10;;;;;;;;;;;8.10;1.00;;;;;;5099038;28;19913;-82
2022/03/30 04:38:35;;;;;;;;;;;8.20;1.00;;;;;;5099154;28;19923;-82
2022/03/30 04:41:00;;;;;;;;;;;8.20;1.00;;;;;;5095985;28;19955;-82
2022/03/30 04:43:27;;;;;;;;;;;8.20;1.00;;;;;;5099095;28;19964;-82
2022/03/30 04:45:54;;;;;;;;;;;8.20;99.90;;;;;;5091444;28;19916;-80
2022/03/30 04:48:20;;;;;;;;;;;8.20;99.90;;;;;;5097566;28;19916;-81
2022/03/30 04:50:46;;;;;;;;;;;8.20;99.90;;;;;;5095101;28;19920;-82
2022/03/30 04:53:11;;;;;;;;;;;8.20;99.90;;;;;;5094235;28;19920;-81
2022/03/30 04:55:37;;;;;;;;;;;8.20;99.90;;;;;;5097315;28;19923;-81
2022/03/30 04:58:03;;;;;;;;;;;8.20;99.90;;;;;;5095419;28;19920;-81
2022/03/30 05:00:28;;;;;;;;;;;8.20;99.90;;;;;;5097544;28;19912;-81
2022/03/30 05:02:53;;;;;;;;;;;8.10;99.90;;;;;;5094776;28;19947;-79
2022/03/30 05:05:19;;;;;;;;;;;8.10;99.90;;;;;;5097027;28;19916;-82
2022/03/30 05:07:45;;;;;;;;;;;8.10;99.90;;;;;;5094980;28;20026;-82
2022/03/30 05:10:11;;;;;;;;;;;8.10;99.90;;;;;;5095387;28;19926;-80
2022/03/30 05:12:36;;;;;;;;;;;8.00;99.90;;;;;;5093793;28;20008;-80
2022/03/30 05:15:02;;;;;;;;;;;7.90;99.90;;;;;;5094178;28;19920;-80
2022/03/30 05:17:30;;;;;;;;;;;7.80;99.90;;;;;;5094903;28;19918;-80
2022/03/30 05:19:56;;;;;;;;;;;7.70;99.90;;;;;;5093259;28;20403;-82
2022/03/30 05:22:21;;;;;;;;;;;7.60;1.00;;;;;;5092254;28;19917;-81
2022/03/30 05:24:47;;;;;;;;;;;7.50;1.00;;;;;;5092437;28;19916;-80
2022/03/30 05:27:15;;;;;;;;;;;7.40;1.00;;;;;;5092203;28;19976;-81
2022/03/30 05:29:40;;;;;;;;;;;7.30;99.90;;;;;;5091712;27;19923;-81
2022/03/30 05:32:06;;;;;;;;;;;7.20;1.00;;;;;;5092692;28;19932;-80
2022/03/30 05:34:32;;;;;;;;;;;7.20;99.90;;;;;;5092555;28;19919;-80
2022/03/30 05:36:58;;;;;;;;;;;7.20;99.90;;;;;;5094324;28;19923;-83
2022/03/30 05:39:24;;;;;;;;;;;7.20;1.00;;;;;;5093602;28;19919;-83
2022/03/30 05:41:49;;;;;;;;;;;7.20;1.00;;;;;;5093284;28;20027;-84
2022/03/30 05:44:15;;;;;;;;;;;7.20;1.00;;;;;;5124106;27;19934;-84
2022/03/30 05:46:40;;;;;;;;;;;7.30;1.00;;;;;;5094498;28;20355;-83
2022/03/30 05:49:06;;;;;;;;;;;7.30;99.90;;;;;;5092459;28;19920;-83
2022/03/30 05:51:32;;;;;;;;;;;7.50;99.90;;;;;;5091646;28;19912;-83
2022/03/30 05:53:58;;;;;;;;;;;7.60;1.00;;;;;;5091062;28;19912;-83
2022/03/30 05:59:20;;;;;;;;;;;8.00;1.00;;;;;;5092924;28;19970;-83
2022/03/30 06:01:46;;;;;;;;;;;8.30;99.90;;;;;;5090202;28;19912;-83
2022/03/30 06:04:12;;;;;;;;;;;8.60;99.90;;;;;;5094034;28;19916;-84
2022/03/30 06:06:37;;;;;;;;;;;8.80;1.00;;;;;;5094854;28;19919;-83
2022/03/30 06:09:05;;;;;;;;;;;9.20;1.00;;;;;;5094567;28;19994;-82
2022/03/30 06:11:31;;;;;;;;;;;9.80;1.00;;;;;;5096483;28;19923;-84
2022/03/30 06:13:58;;;;;;;;;;;10.60;99.90;;;;;;5096007;28;19912;-84
2022/03/30 06:16:24;;;;;;;;;;;11.00;99.90;;;;;;5095514;28;19912;-83
2022/03/30 06:18:50;;;;;;;;;;;11.00;99.90;;;;;;5086913;28;19916;-83
2022/03/30 06:21:15;;;;;;;;;;;11.30;99.90;;;;;;5093294;28;19950;-84
2022/03/30 06:23:44;;;;;;;;;;;12.30;99.90;;;;;;5094047;28;20028;-84
2022/03/30 06:26:09;;;;;;;;;;;13.00;99.90;;;;;;5098807;28;19942;-83
2022/03/30 06:28:35;;;;;;;;;;;12.80;99.90;;;;;;5111930;28;20420;-82
2022/03/30 06:31:00;;;;;;;;;;;12.40;99.90;;;;;;5108269;28;19934;-83
2022/03/30 06:33:26;;;;;;;;;;;12.30;99.90;;;;;;5113103;28;19919;-84
2022/03/30 06:35:51;;;;;;;;;;;13.20;99.90;;;;;;5091479;28;19912;-84
2022/03/30 06:38:19;;;;;;;;;;;15.10;99.90;;;;;;5093223;28;20291;-84
2022/03/30 06:40:46;;;;;;;;;;;17.30;99.90;;;;;;5097075;28;19927;-84
2022/03/30 06:43:12;;;;;;;;;;;19.20;99.90;;;;;;5093314;28;20011;-85
2022/03/30 06:45:38;;;;;;;;;;;20.90;99.90;;;;;;5094927;28;19955;-85
2022/03/30 06:48:05;;;;;;;;;;;22.10;99.90;;;;;;5091013;28;20348;-83
2022/03/30 06:50:32;;;;;;;;;;;22.30;99.90;;;;;;5095260;28;20001;-84
2022/03/30 06:52:58;;;;;;;;;;;22.10;99.90;;;;;;5090007;28;19912;-83
2022/03/30 06:55:24;;;;;;;;;;;21.50;99.90;;;;;;5095872;28;19907;-84
2022/03/30 06:57:50;;;;;;;;;;;20.20;99.90;;;;;;5095135;28;19973;-83
2022/03/30 07:00:15;;;;;;;;;;;18.50;99.90;;;;;;5092176;28;20341;-83
2022/03/30 07:02:41;;;;;;;;;;;17.00;99.90;;;;;;5091323;28;20649;-83
2022/03/30 07:05:06;;;;;;;;;;;16.00;99.90;;;;;;5093180;28;19916;-83
2022/03/30 07:10:38;;;;;;;;;;;14.50;99.90;;;;;;5010245;28;20460;-83
2022/03/30 07:13:03;;;;;;;;;;;14.00;99.90;;;;;;5005269;28;19957;-82
2022/03/30 07:15:29;;;;;;;;;;;13.60;99.90;;;;;;5043431;28;19920;-83
2022/03/30 07:17:56;;;;;;;;;;;13.40;99.90;;;;;;5084930;28;20353;-82
2022/03/30 07:20:23;;;;;;;;;;;13.40;99.90;;;;;;5092456;28;19916;-84
2022/03/30 07:22:49;;;;;;;;;;;13.40;99.90;;;;;;5093394;28;20460;-83
2022/03/30 07:25:15;;;;;;;;;;;13.40;99.90;;;;;;5087973;28;19920;-83
2022/03/30 07:27:41;;;;;;;;;;;13.20;99.90;;;;;;5094007;28;19916;-82
2022/03/30 07:30:08;;;;;;;;;;;13.10;99.90;;;;;;5095043;28;19936;-83
2022/03/30 07:32:34;;;;;;;;;;;13.20;99.90;;;;;;5093555;28;19919;-83
2022/03/30 07:34:59;;;;;;;;;;;13.40;99.90;;;;;;5095093;28;19935;-83
2022/03/30 07:37:25;;;;;;;;;;;13.50;99.90;;;;;;5096320;28;19912;-83
2022/03/30 07:39:51;;;;;;;;;;;13.50;99.90;;;;;;5096113;28;19920;-84
2022/03/30 07:42:16;;;;;;;;;;;13.60;99.90;;;;;;5093824;28;20509;-84
2022/03/30 07:44:42;;;;;;;;;;;13.50;99.90;;;;;;5094190;28;19975;-84
2022/03/30 07:47:07;;;;;;;;;;;13.50;99.90;;;;;;5091298;28;19920;-83
2022/03/30 07:49:33;;;;;;;;;;;13.70;99.90;;;;;;5093182;28;19938;-84
2022/03/30 07:52:03;;;;;;;;;;;13.60;99.90;;;;;;5092760;28;19919;-83
2022/03/30 07:54:29;;;;;;;;;;;13.40;99.90;;;;;;5097999;28;19912;-84
2022/03/30 07:56:54;;;;;;;;;;;13.50;99.90;;;;;;5098394;28;20447;-83
2022/03/30 07:59:20;;;;;;;;;;;13.70;99.90;;;;;;5098990;28;19991;-85
2022/03/30 08:01:46;;;;;;;;;;;14.10;99.90;;;;;;5099750;28;19912;-83
2022/03/30 08:04:11;;;;;;;;;;;14.70;99.90;;;;;;5097935;28;19919;-83
2022/03/30 08:06:37;;;;;;;;;;;15.40;99.90;;;;;;5099011;28;19912;-84
2022/03/30 08:09:03;;;;;;;;;;;16.60;99.90;;;;;;5087149;28;19991;-84
2022/03/30 08:11:29;;;;;;;;;;;17.60;99.90;;;;;;5092642;28;19912;-83
2022/03/30 08:13:56;;;;;;;;;;;18.40;99.90;;;;;;5094647;28;20007;-83
2022/03/30 08:16:22;;;;;;;;;;;19.40;99.90;;;;;;5088896;28;19919;-84
2022/03/30 08:18:47;;;;;;;;;;;20.50;99.90;;;;;;5095302;28;20332;-82
2022/03/30 08:23:57;;;;;;;;;;;20.90;99.90;;;;;;5092324;28;20013;-83
2022/03/30 08:26:23;;;;;;;;;;;20.40;99.90;;;;;;5096357;28;20342;-83
2022/03/30 08:28:48;;;;;;;;;;;21.20;99.90;;;;;;5104925;28;19916;-84
2022/03/30 08:31:14;;;;;;;;;;;21.80;99.90;;;;;;5105200;28;19918;-84
2022/03/30 08:33:39;;;;;;;;;;;22.00;99.90;;;;;;5103047;28;19923;-84
2022/03/30 08:36:07;;;;;;;;;;;21.40;99.90;;;;;;5107098;28;19959;-84
2022/03/30 08:38:32;;;;;;;;;;;21.00;99.90;;;;;;5096167;28;20387;-85
2022/03/30 08:40:59;;;;;;;;;;;20.90;99.90;;;;;;5098684;28;19926;-84
2022/03/30 08:43:27;;;;;;;;;;;20.90;99.90;;;;;;5097003;28;19915;-84
2022/03/30 08:45:56;;;;;;;;;;;21.80;99.90;;;;;;5097445;28;19912;-84
2022/03/30 08:48:22;;;;;;;;;;;22.10;99.90;;;;;;5106846;28;19908;-84
2022/03/30 08:50:49;;;;;;;;;;;22.10;99.90;;;;;;5105827;28;19911;-84
2022/03/30 08:53:15;;;;;;;;;;;21.90;99.90;;;;;;5098448;27;19939;-85
2022/03/30 08:55:41;;;;;;;;;;;22.10;99.90;;;;;;5098716;28;20410;-84
2022/03/30 08:58:06;;;;;;;;;;;22.70;99.90;;;;;;5108381;28;19953;-84
2022/03/30 09:00:34;;;;;;;;;;;23.90;99.90;;;;;;5104305;28;19965;-84
2022/03/30 09:03:00;;;;;;;;;;;24.20;99.90;;;;;;5108548;28;19908;-84
2022/03/30 09:05:27;;;;;;;;;;;24.30;99.90;;;;;;5095561;28;20269;-84
2022/03/30 09:08:12;;;;;;;;;;;23.40;99.90;;;;;;5110313;28;19991;-85
2022/03/30 09:10:38;;;;;;;;;;;23.90;99.90;;;;;;5109430;28;19915;-85
2022/03/30 09:13:04;;;;;;;;;;;25.10;99.90;;;;;;5101731;28;19979;-85
2022/03/30 09:15:31;;;;;;;;;;;26.60;99.90;;;;;;5107054;28;19958;-84
2022/03/30 09:18:01;;;;;;;;;;;25.80;99.90;;;;;;5112328;28;19919;-85
2022/03/30 09:20:26;;;;;;;;;;;24.10;99.90;;;;;;5118119;28;19915;-84
2022/03/30 09:22:54;;;;;;;;;;;23.40;99.90;;;;;;5111654;28;19911;-84
2022/03/30 09:25:22;;;;;;;;;;;22.60;99.90;;;;;;5115565;28;19912;-84
2022/03/30 09:27:47;;;;;;;;;;;22.70;99.90;;;;;;5103818;28;19912;-85
2022/03/30 09:30:15;;;;;;;;;;;23.90;99.90;;;;;;5103768;28;19916;-85
2022/03/30 09:32:41;;;;;;;;;;;25.40;99.90;;;;;;5101842;28;20027;-85
2022/03/30 09:35:17;;;;;;;;;;;25.10;99.90;;;;;;5112861;28;19929;-85
2022/03/30 09:37:42;;;;;;;;;;;25.10;99.90;;;;;;5123705;28;20299;-85
2022/03/30 09:40:11;;;;;;;;;;;26.10;99.90;;;;;;5110522;28;19915;-85
2022/03/30 09:42:36;;;;;;;;;;;26.60;99.90;;;;;;5117049;28;19947;-85
2022/03/30 09:45:02;;;;;;;;;;;25.80;99.90;;;;;;5098279;28;19908;-85
2022/03/30 09:47:36;;;;;;;;;;;25.60;99.90;;;;;;5102649;28;19912;-84
2022/03/30 09:50:06;;;;;;;;;;;25.60;99.90;;;;;;5108407;28;19920;-85
2022/03/30 09:52:33;;;;;;;;;;;26.10;99.90;;;;;;5116397;28;20412;-85
2022/03/30 09:55:00;;;;;;;;;;;26.90;99.90;;;;;;5110964;28;19912;-86
2022/03/30 09:57:27;;;;;;;;;;;26.70;99.90;;;;;;5112515;28;19918;-85
2022/03/30 09:59:59;;;;;;;;;;;26.50;99.90;;;;;;5102891;28;19908;-87
2022/03/30 10:02:25;;;;;;;;;;;25.90;99.90;;;;;;5099277;28;19920;-85
2022/03/30 10:04:51;;;;;;;;;;;25.50;99.90;;;;;;5107442;28;20337;-85
2022/03/30 10:07:17;;;;;;;;;;;25.50;99.90;;;;;;5105945;28;19916;-85
2022/03/30 10:09:42;;;;;;;;;;;25.60;99.90;;;;;;5110513;28;19911;-85
2022/03/30 10:12:08;;;;;;;;;;;25.60;99.90;;;;;;5101564;28;19908;-85
2022/03/30 10:14:36;;;;;;;;;;;25.00;99.90;;;;;;5107194;28;19977;-84
2022/03/30 10:17:01;;;;;;;;;;;25.10;99.90;;;;;;5111082;28;19923;-83
2022/03/30 10:19:28;;;;;;;;;;;25.60;99.90;;;;;;5112510;28;19912;-85
2022/03/30 10:21:58;;;;;;;;;;;26.00;99.90;;;;;;5113007;28;19990;-85
2022/03/30 10:24:30;;;;;;;;;;;26.60;99.90;;;;;;5098740;28;19943;-85
2022/03/30 10:27:14;;;;;;;;;;;27.30;99.90;;;;;;5096741;28;19919;-85
2022/03/30 10:29:47;;;;;;;;;;;28.50;99.90;;;;;;5102213;28;19975;-85
2022/03/30 10:32:15;;;;;;;;;;;29.50;99.90;;;;;;5127941;27;19973;-85
2022/03/30 10:34:41;;;;;;;;;;;30.60;99.90;;;;;;5091517;28;19916;-84
2022/03/30 10:37:09;;;;;;;;;;;31.60;99.90;;;;;;5094952;28;19961;-84
2022/03/30 10:39:54;;;;;;;;;;;32.40;99.90;;;;;;5106848;28;20332;-84
2022/03/30 10:42:20;;;;;;;;;;;31.80;99.90;;;;;;5108510;28;19912;-83
2022/03/30 10:44:49;;;;;;;;;;;30.20;99.90;;;;;;5106044;27;20354;-86
2022/03/30 10:47:23;;;;;;;;;;;29.70;99.90;;;;;;5108705;28;19912;-86
2022/03/30 10:49:54;;;;;;;;;;;29.60;99.90;;;;;;5105938;28;20311;-84
2022/03/30 10:52:38;;;;;;;;;;;29.60;99.90;;;;;;5093548;28;19919;-86
2022/03/30 10:55:13;;;;;;;;;;;30.20;99.90;;;;;;5102129;28;19947;-84
2022/03/30 10:57:52;;;;;;;;;;;30.70;99.90;;;;;;5104471;28;19959;-84
2022/03/30 11:00:17;;;;;;;;;;;30.80;99.90;;;;;;5097444;28;19908;-84
2022/03/30 11:02:43;;;;;;;;;;;30.40;99.90;;;;;;5110509;28;20278;-84
2022/03/30 11:05:09;;;;;;;;;;;31.10;99.90;;;;;;5105663;28;19915;-84
2022/03/30 11:07:35;;;;;;;;;;;30.80;99.90;;;;;;5111756;28;19998;-84
2022/03/30 11:10:13;;;;;;;;;;;30.80;99.90;;;;;;5096887;28;19960;-84
2022/03/30 11:13:17;;;;;;;;;;;31.10;99.90;;;;;;5097626;27;20391;-86
2022/03/30 11:15:59;;;;;;;;;;;29.90;99.90;;;;;;5050904;28;20346;-86
2022/03/30 11:18:25;;;;;;;;;;;30.80;99.90;;;;;;5067403;28;19912;-85
2022/03/30 11:21:09;;;;;;;;;;;31.30;99.90;;;;;;5096053;28;20002;-84
2022/03/30 11:23:35;;;;;;;;;;;30.40;99.90;;;;;;5104417;28;19934;-82
2022/03/30 11:26:00;;;;;;;;;;;30.60;99.90;;;;;;5105523;27;19911;-83
2022/03/30 11:28:34;;;;;;;;;;;30.20;99.90;;;;;;5108056;28;19960;-84
2022/03/30 11:31:01;;;;;;;;;;;30.80;99.90;;;;;;5101299;28;19965;-85
2022/03/30 11:33:28;;;;;;;;;;;31.30;99.90;;;;;;5101662;28;20056;-85
2022/03/30 11:35:54;;;;;;;;;;;31.10;99.90;;;;;;5109511;28;20017;-84
2022/03/30 11:38:32;;;;;;;;;;;30.80;99.90;;;;;;5107891;28;19912;-85
2022/03/30 11:41:01;;;;;;;;;;;31.20;99.90;;;;;;5115326;28;20019;-83
2022/03/30 11:43:27;;;;;;;;;;;31.10;99.90;;;;;;5110070;28;20298;-85
2022/03/30 11:45:53;;;;;;;;;;;31.40;99.90;;;;;;5104663;28;19996;-85
2022/03/30 11:48:19;;;;;;;;;;;30.50;99.90;;;;;;5104753;28;20296;-85
2022/03/30 11:50:49;;;;;;;;;;;30.70;99.90;;;;;;5113408;28;19971;-84
2022/03/30 11:53:18;;;;;;;;;;;31.30;99.90;;;;;;5103632;28;19915;-84
2022/03/30 11:55:46;;;;;;;;;;;31.80;99.90;;;;;;5101237;28;20032;-85
2022/03/30 11:58:21;;;;;;;;;;;31.20;99.90;;;;;;5099676;28;19912;-85
2022/03/30 12:00:47;;;;;;;;;;;31.00;99.90;;;;;;5101113;28;19919;-84
2022/03/30 12:03:14;;;;;;;;;;;29.80;99.90;;;;;;5100792;28;19944;-84
2022/03/30 12:05:39;;;;;;;;;;;29.70;99.90;;;;;;5105990;28;19919;-84
2022/03/30 12:08:05;;;;;;;;;;;29.80;99.90;;;;;;5114918;28;19908;-84
2022/03/30 12:10:31;;;;;;;;;;;30.20;99.90;;;;;;5099174;28;19959;-83
2022/03/30 12:12:57;;;;;;;;;;;30.60;99.90;;;;;;5098398;28;19912;-84
2022/03/30 12:15:23;;;;;;;;;;;30.90;99.90;;;;;;5136308;27;19994;-84
2022/03/30 12:17:49;;;;;;;;;;;30.20;99.90;;;;;;5106294;28;19916;-84
2022/03/30 12:20:41;;;;;;;;;;;29.30;99.90;;;;;;5104190;28;19985;-85
2022/03/30 12:23:10;;;;;;;;;;;29.00;99.90;;;;;;5114999;28;19909;-84
2022/03/30 12:25:42;;;;;;;;;;;29.40;99.90;;;;;;5121433;28;19916;-85
2022/03/30 12:28:07;;;;;;;;;;;29.60;99.90;;;;;;5107962;28;19939;-83
2022/03/30 12:30:34;;;;;;;;;;;28.90;99.90;;;;;;5093117;28;19912;-83
2022/03/30 12:33:00;;;;;;;;;;;29.00;99.90;;;;;;5108241;28;19908;-84
2022/03/30 12:35:33;;;;;;;;;;;29.40;99.90;;;;;;5115497;28;20343;-83
2022/03/30 12:38:06;;;;;;;;;;;29.40;99.90;;;;;;5105914;28;19961;-84
2022/03/30 12:40:33;;;;;;;;;;;29.70;99.90;;;;;;5117462;28;20532;-84
2022/03/30 12:42:59;;;;;;;;;;;29.80;99.90;;;;;;5108544;27;20011;-83
2022/03/30 12:45:25;;;;;;;;;;;28.80;99.90;;;;;;5101105;28;20010;-83
2022/03/30 12:47:54;;;;;;;;;;;28.60;99.90;;;;;;5115145;28;20044;-84
2022/03/30 12:50:23;;;;;;;;;;;28.60;99.90;;;;;;5104017;28;19912;-85
2022/03/30 12:52:51;;;;;;;;;;;29.10;99.90;;;;;;5111880;28;20002;-84
2022/03/30 12:55:33;;;;;;;;;;;29.50;99.90;;;;;;5098419;28;20376;-84
2022/03/30 12:58:00;;;;;;;;;;;29.50;99.90;;;;;;5096853;28;20451;-84
2022/03/30 13:00:28;;;;;;;;;;;29.30;99.90;;;;;;5108043;28;19974;-84
2022/03/30 13:03:07;;;;;;;;;;;29.50;99.90;;;;;;5094871;28;19912;-84
2022/03/30 13:05:32;;;;;;;;;;;29.60;99.90;;;;;;5094232;28;19971;-85
2022/03/30 13:07:58;;;;;;;;;;;29.50;99.90;;;;;;5095030;28;20009;-84
2022/03/30 13:10:23;;;;;;;;;;;29.50;99.90;;;;;;5097971;28;19912;-85
2022/03/30 13:12:55;;;;;;;;;;;28.50;99.90;;;;;;5108410;28;19908;-83
2022/03/30 13:15:21;;;;;;;;;;;28.00;99.90;;;;;;5108363;28;19966;-84
2022/03/30 13:18:13;;;;;;;;;;;27.90;99.90;;;;;;5109987;28;19998;-85
2022/03/30 13:20:39;;;;;;;;;;;28.10;99.90;;;;;;5107180;27;20516;-84
2022/03/30 13:23:10;;;;;;;;;;;28.50;99.90;;;;;;5100741;28;19909;-83
2022/03/30 13:25:35;;;;;;;;;;;28.50;99.90;;;;;;5102363;28;19934;-83
2022/03/30 13:28:02;;;;;;;;;;;28.00;99.90;;;;;;5109392;28;19994;-84
2022/03/30 13:30:28;;;;;;;;;;;27.80;99.90;;;;;;5100195;28;19912;-83
2022/03/30 13:32:53;;;;;;;;;;;26.90;99.90;;;;;;5114007;28;19951;-83
2022/03/30 13:35:19;;;;;;;;;;;25.90;99.90;;;;;;5105213;28;19957;-82
2022/03/30 13:37:44;;;;;;;;;;;24.80;99.90;;;;;;5112214;28;19935;-83
2022/03/30 13:40:10;;;;;;;;;;;24.80;99.90;;;;;;5108848;28;20384;-83
2022/03/30 13:42:35;;;;;;;;;;;25.00;99.90;;;;;;5097019;28;19908;-83
2022/03/30 13:45:01;;;;;;;;;;;24.90;99.90;;;;;;5092950;28;19912;-84
2022/03/30 13:47:28;;;;;;;;;;;25.00;99.90;;;;;;5096873;28;19916;-83
2022/03/30 13:49:54;;;;;;;;;;;25.20;99.90;;;;;;5102873;28;19908;-84
2022/03/30 13:52:21;;;;;;;;;;;25.20;99.90;;;;;;5104574;28;19942;-84
2022/03/30 13:54:47;;;;;;;;;;;25.20;99.90;;;;;;5103004;28;19915;-83
2022/03/30 13:57:12;;;;;;;;;;;25.40;99.90;;;;;;5116873;28;19916;-84
2022/03/30 13:59:39;;;;;;;;;;;25.40;99.90;;;;;;5117812;28;19916;-83
2022/03/30 14:02:05;;;;;;;;;;;25.50;99.90;;;;;;5113837;28;19904;-84
2022/03/30 14:04:31;;;;;;;;;;;25.70;99.90;;;;;;5116006;28;19916;-84
2022/03/30 14:06:56;;;;;;;;;;;25.70;99.90;;;;;;5092931;28;19913;-83
2022/03/30 14:09:22;;;;;;;;;;;25.70;99.90;;;;;;5094267;28;20390;-83
2022/03/30 14:11:48;;;;;;;;;;;25.80;99.90;;;;;;5107871;28;20390;-83
2022/03/30 14:14:14;;;;;;;;;;;25.70;99.90;;;;;;5116950;28;19908;-83
2022/03/30 14:16:39;;;;;;;;;;;25.70;99.90;;;;;;5108007;28;19915;-83
2022/03/30 14:19:05;;;;;;;;;;;25.40;99.90;;;;;;5119150;28;19911;-84
2022/03/30 14:21:30;;;;;;;;;;;25.30;99.90;;;;;;5096914;28;19971;-84
2022/03/30 14:23:56;;;;;;;;;;;24.90;99.90;;;;;;5107571;28;19911;-84
2022/03/30 14:26:22;;;;;;;;;;;24.80;99.90;;;;;;5105733;28;19908;-83
2022/03/30 14:28:47;;;;;;;;;;;24.60;99.90;;;;;;5105619;28;20030;-84
2022/03/30 14:31:13;;;;;;;;;;;24.60;99.90;;;;;;5097153;28;19954;-83